createdAt,value
2023-04-15T00:01:11.669Z,10.18
2023-04-15T00:03:38.538Z,7.50
2023-04-15T00:06:05.801Z,6.65
2023-04-15T00:08:32.468Z,6.88
2023-04-15T00:11:02.772Z,8.52
2023-04-15T00:13:29.737Z,9.90
2023-04-15T00:15:56.435Z,9.05
2023-04-15T00:18:24.600Z,9.00
2023-04-15T00:20:52.409Z,9.20
2023-04-15T00:23:19.190Z,9.77
2023-04-15T00:25:45.850Z,10.75
2023-04-15T00:28:12.405Z,10.43
2023-04-15T00:30:38.935Z,9.75
2023-04-15T00:33:06.158Z,10.40
2023-04-15T00:35:32.755Z,10.80
2023-04-15T00:37:59.734Z,9.93
2023-04-15T00:40:26.423Z,10.80
2023-04-15T00:42:53.055Z,9.73
2023-04-15T00:45:19.812Z,11.00
2023-04-15T00:47:46.774Z,11.50
2023-04-15T00:50:13.612Z,10.38
2023-04-15T00:52:40.931Z,10.05
2023-04-15T00:55:08.648Z,9.68
2023-04-15T00:57:36.147Z,10.43
2023-04-15T01:00:04.578Z,7.53
2023-04-15T01:02:31.853Z,9.02
2023-04-15T01:04:58.505Z,9.35
2023-04-15T01:07:24.982Z,8.85
2023-04-15T01:09:52.283Z,9.65
2023-04-15T01:12:20.429Z,9.05
2023-04-15T01:14:46.939Z,11.63
2023-04-15T01:17:13.677Z,9.20
2023-04-15T01:19:40.681Z,9.38
2023-04-15T01:22:07.180Z,8.25
2023-04-15T01:24:34.267Z,8.68
2023-04-15T01:27:01.324Z,8.63
2023-04-15T01:29:28.027Z,8.43
2023-04-15T01:31:56.773Z,8.85
2023-04-15T01:34:23.540Z,8.90
2023-04-15T01:36:50.155Z,10.00
2023-04-15T01:39:16.635Z,7.45
2023-04-15T01:41:43.105Z,10.25
2023-04-15T01:44:10.023Z,8.15
2023-04-15T01:46:36.969Z,10.95
2023-04-15T01:49:03.495Z,8.80
2023-04-15T01:51:29.992Z,7.50
2023-04-15T01:53:59.444Z,8.13
2023-04-15T01:56:26.690Z,10.65
2023-04-15T01:58:53.502Z,8.10
2023-04-15T02:01:20.191Z,7.72
2023-04-15T02:03:47.736Z,9.32
2023-04-15T02:06:14.518Z,8.75
2023-04-15T02:08:40.998Z,8.32
2023-04-15T02:11:07.564Z,7.93
2023-04-15T02:13:34.104Z,6.05
2023-04-15T02:16:01.061Z,6.22
2023-04-15T02:18:27.636Z,5.90
2023-04-15T02:20:54.243Z,7.72
2023-04-15T02:23:20.768Z,6.38
2023-04-15T02:25:53.907Z,6.40
2023-04-15T02:28:21.855Z,6.25
2023-04-15T02:30:52.454Z,6.82
2023-04-15T02:33:19.453Z,7.18
2023-04-15T02:35:46.574Z,6.40
2023-04-15T02:38:14.215Z,7.65
2023-04-15T02:40:40.959Z,6.38
2023-04-15T02:43:07.696Z,7.78
2023-04-15T02:45:34.617Z,8.15
2023-04-15T02:48:06.086Z,7.28
2023-04-15T02:50:33.127Z,6.60
2023-04-15T02:53:01.556Z,7.10
2023-04-15T02:55:29.267Z,7.65
2023-04-15T02:57:56.271Z,8.38
2023-04-15T03:00:25.214Z,7.90
2023-04-15T03:02:56.357Z,9.80
2023-04-15T03:05:25.302Z,8.07
2023-04-15T03:08:17.578Z,8.88
2023-04-15T03:10:44.356Z,8.13
2023-04-15T03:13:11.410Z,7.30
2023-04-15T03:15:38.097Z,7.78
2023-04-15T03:18:04.784Z,7.78
2023-04-15T03:20:31.478Z,8.45
2023-04-15T03:22:58.242Z,9.93
2023-04-15T03:25:25.004Z,8.73
2023-04-15T03:27:52.029Z,9.35
2023-04-15T03:30:18.695Z,9.02
2023-04-15T03:32:45.558Z,10.20
2023-04-15T03:35:12.386Z,9.68
2023-04-15T03:37:39.157Z,9.32
2023-04-15T03:40:06.907Z,9.38
2023-04-15T03:42:33.580Z,9.32
2023-04-15T03:45:00.646Z,12.25
2023-04-15T03:47:27.401Z,8.43
2023-04-15T03:49:54.348Z,10.15
2023-04-15T03:52:21.337Z,9.70
2023-04-15T03:54:48.003Z,9.77
2023-04-15T03:57:14.727Z,10.90
2023-04-15T03:59:41.390Z,12.07
2023-04-15T04:02:08.175Z,11.45
2023-04-15T04:04:34.935Z,9.70
2023-04-15T04:07:01.614Z,11.63
2023-04-15T04:09:28.322Z,9.80
2023-04-15T04:11:55.024Z,11.27
2023-04-15T04:14:27.326Z,11.18
2023-04-15T04:16:55.733Z,10.05
2023-04-15T04:19:23.209Z,10.57
2023-04-15T04:21:49.852Z,10.95
2023-04-15T04:24:16.772Z,9.80
2023-04-15T04:26:43.503Z,9.07
2023-04-15T04:29:10.196Z,8.18
2023-04-15T04:31:37.037Z,8.65
2023-04-15T04:34:03.690Z,9.43
2023-04-15T04:36:30.331Z,10.23
2023-04-15T04:38:57.158Z,8.32
2023-04-15T04:41:23.911Z,9.05
2023-04-15T04:43:50.824Z,7.72
2023-04-15T04:46:17.566Z,7.25
2023-04-15T04:48:46.623Z,6.80
2023-04-15T04:51:13.881Z,11.63
2023-04-15T04:53:40.653Z,7.25
2023-04-15T04:56:08.491Z,7.28
2023-04-15T04:58:35.242Z,10.00
2023-04-15T05:01:03.089Z,7.32
2023-04-15T05:03:29.945Z,6.53
2023-04-15T05:05:56.790Z,6.60
2023-04-15T05:08:23.481Z,6.05
2023-04-15T05:10:50.134Z,6.07
2023-04-15T05:13:16.782Z,6.82
2023-04-15T05:15:44.255Z,6.32
2023-04-15T05:18:50.607Z,6.35
2023-04-15T05:21:15.467Z,6.32
2023-04-15T05:23:42.338Z,6.53
2023-04-15T05:26:09.353Z,4.80
2023-04-15T05:28:36.199Z,6.90
2023-04-15T05:31:03.094Z,6.05
2023-04-15T05:33:29.833Z,8.10
2023-04-15T05:35:56.504Z,6.10
2023-04-15T05:38:23.305Z,6.32
2023-04-15T05:40:50.002Z,5.57
2023-04-15T05:43:16.607Z,5.05
2023-04-15T05:45:43.264Z,6.80
2023-04-15T05:48:09.916Z,7.00
2023-04-15T05:50:36.737Z,5.95
2023-04-15T05:53:04.391Z,7.03
2023-04-15T05:55:31.294Z,6.90
2023-04-15T05:57:58.090Z,8.07
2023-04-15T06:00:25.285Z,6.72
2023-04-15T06:02:53.111Z,7.93
2023-04-15T06:05:19.914Z,9.95
2023-04-15T06:07:48.456Z,6.53
2023-04-15T06:10:22.560Z,8.77
2023-04-15T06:12:49.263Z,10.18
2023-04-15T06:15:17.028Z,11.48
2023-04-15T06:17:43.750Z,9.18
2023-04-15T06:20:11.252Z,11.35
2023-04-15T06:22:39.126Z,11.05
2023-04-15T06:25:08.644Z,13.63
2023-04-15T06:27:35.390Z,11.88
2023-04-15T06:30:02.075Z,11.77
2023-04-15T06:32:28.809Z,12.18
2023-04-15T06:34:55.496Z,12.85
2023-04-15T06:37:22.166Z,15.90
2023-04-15T06:39:48.849Z,15.65
2023-04-15T06:42:16.488Z,14.75
2023-04-15T06:44:43.303Z,16.77
2023-04-15T06:47:09.993Z,16.77
2023-04-15T06:49:36.686Z,17.02
2023-04-15T06:52:04.940Z,19.25
2023-04-15T06:54:31.927Z,20.13
2023-04-15T06:56:58.792Z,19.40
2023-04-15T06:59:25.528Z,19.38
2023-04-15T07:01:52.253Z,21.02
2023-04-15T07:04:18.980Z,23.25
2023-04-15T07:06:46.044Z,23.52
2023-04-15T07:09:12.756Z,21.85
2023-04-15T07:11:39.737Z,23.88
2023-04-15T07:14:06.777Z,27.58
2023-04-15T07:16:33.444Z,27.80
2023-04-15T07:19:00.292Z,28.33
2023-04-15T07:21:27.651Z,27.08
2023-04-15T07:23:54.381Z,29.95
2023-04-15T07:26:21.407Z,28.25
2023-04-15T07:28:48.129Z,34.83
2023-04-15T07:31:14.992Z,28.38
2023-04-15T07:33:41.808Z,32.17
2023-04-15T07:36:09.219Z,33.20
2023-04-15T07:38:35.883Z,36.33
2023-04-15T07:41:02.849Z,31.55
2023-04-15T07:43:29.625Z,34.65
2023-04-15T07:45:56.535Z,38.55
2023-04-15T07:48:23.213Z,34.88
2023-04-15T07:50:49.912Z,35.10
2023-04-15T07:53:16.603Z,36.10
2023-04-15T07:55:43.249Z,36.92
2023-04-15T07:58:09.964Z,36.15
2023-04-15T08:00:38.169Z,36.95
2023-04-15T08:03:05.020Z,39.58
2023-04-15T08:05:31.786Z,38.65
2023-04-15T08:08:02.022Z,43.80
2023-04-15T08:10:30.147Z,43.65
2023-04-15T08:12:57.492Z,43.97
2023-04-15T08:15:24.261Z,41.95
2023-04-15T08:17:51.076Z,41.85
2023-04-15T08:20:17.831Z,45.95
2023-04-15T08:22:44.700Z,42.22
2023-04-15T08:25:11.359Z,46.33
2023-04-15T08:27:37.988Z,45.90
2023-04-15T08:30:05.344Z,44.58
2023-04-15T08:32:32.166Z,48.30
2023-04-15T08:34:59.129Z,49.70
2023-04-15T08:37:26.625Z,47.25
2023-04-15T08:39:53.300Z,45.72
2023-04-15T08:42:27.639Z,49.83
2023-04-15T08:44:55.288Z,40.28
2023-04-15T08:47:27.207Z,44.65
2023-04-15T08:49:55.399Z,48.58
2023-04-15T08:52:22.508Z,43.22
2023-04-15T08:54:49.119Z,45.78
2023-04-15T08:57:16.040Z,47.05
2023-04-15T08:59:43.544Z,44.05
2023-04-15T09:02:10.162Z,50.38
2023-04-15T09:04:36.660Z,45.55
2023-04-15T09:07:03.216Z,46.33
2023-04-15T09:09:29.741Z,41.50
2023-04-15T09:11:56.694Z,44.70
2023-04-15T09:14:23.298Z,48.30
2023-04-15T09:17:05.365Z,49.92
2023-04-15T09:22:00.254Z,44.58
2023-04-15T09:24:37.438Z,45.72
2023-04-15T09:27:04.252Z,47.13
2023-04-15T09:29:31.453Z,49.90
2023-04-15T09:32:10.785Z,48.22
2023-04-15T09:34:37.868Z,46.63
2023-04-15T09:37:04.516Z,47.92
2023-04-15T09:39:51.903Z,50.53
2023-04-15T09:42:24.953Z,50.15
2023-04-15T09:44:52.941Z,49.60
2023-04-15T09:47:32.325Z,51.75
2023-04-15T09:50:00.425Z,66.88
2023-04-15T09:52:27.330Z,53.97
2023-04-15T09:54:57.859Z,70.45
2023-04-15T09:57:24.620Z,49.70
2023-04-15T09:59:52.115Z,54.53
2023-04-15T10:02:21.299Z,57.13
2023-04-15T10:04:48.780Z,52.22
2023-04-15T10:07:15.648Z,51.90
2023-04-15T10:09:45.697Z,56.67
2023-04-15T10:12:12.496Z,53.50
2023-04-15T10:14:42.921Z,95.25
2023-04-15T10:17:11.545Z,59.80
2023-04-15T10:19:38.706Z,50.80
2023-04-15T10:22:06.493Z,54.17
2023-04-15T10:24:33.875Z,54.90
2023-04-15T10:27:01.216Z,52.95
2023-04-15T10:29:31.217Z,56.05
2023-04-15T10:31:59.736Z,47.40
2023-04-15T10:34:27.412Z,49.25
2023-04-15T10:37:04.144Z,47.63
2023-04-15T10:39:40.077Z,50.58
2023-04-15T10:42:15.243Z,44.58
2023-04-15T10:44:46.535Z,54.75
2023-04-15T10:47:15.431Z,52.55
2023-04-15T10:49:50.610Z,48.38
2023-04-15T10:52:22.136Z,39.35
2023-04-15T10:54:48.885Z,45.95
2023-04-15T10:57:22.999Z,42.38
2023-04-15T11:00:10.677Z,46.55
2023-04-15T11:02:53.457Z,43.72
2023-04-15T11:05:22.544Z,45.92
2023-04-15T11:07:56.025Z,43.03
2023-04-15T11:10:25.757Z,41.85
2023-04-15T11:12:56.655Z,43.10
2023-04-15T11:15:37.581Z,44.80
2023-04-15T11:18:23.252Z,41.85
2023-04-15T11:20:59.704Z,49.28
2023-04-15T11:23:38.017Z,43.92
2023-04-15T11:26:09.190Z,40.10
2023-04-15T11:28:38.316Z,39.58
2023-04-15T11:33:32.688Z,37.08
2023-04-15T11:35:59.204Z,37.13
2023-04-15T11:38:25.704Z,34.97
2023-04-15T11:40:52.629Z,38.80
2023-04-15T11:43:21.995Z,39.70
2023-04-15T11:45:57.284Z,34.58
2023-04-15T11:48:26.421Z,31.45
2023-04-15T11:51:03.912Z,35.92
2023-04-15T11:53:45.955Z,34.92
2023-04-15T11:56:26.425Z,35.25
2023-04-15T11:58:59.859Z,37.05
2023-04-15T12:01:39.303Z,33.80
2023-04-15T12:04:15.846Z,37.70
2023-04-15T12:06:43.033Z,33.33
2023-04-15T12:09:12.182Z,33.92
2023-04-15T12:11:42.510Z,30.98
2023-04-15T12:14:12.582Z,21.48
2023-04-15T12:16:51.041Z,23.40
2023-04-15T12:19:23.456Z,19.52
2023-04-15T12:21:50.979Z,22.77
2023-04-15T12:24:21.682Z,19.38
2023-04-15T12:26:53.517Z,20.27
2023-04-15T12:29:24.807Z,14.60
2023-04-15T12:32:11.452Z,19.33
2023-04-15T12:34:51.504Z,16.38
2023-04-15T12:37:18.431Z,15.77
2023-04-15T12:39:48.726Z,13.38
2023-04-15T12:42:15.981Z,15.05
2023-04-15T12:44:43.044Z,14.30
2023-04-15T12:47:10.768Z,17.98
2023-04-15T12:49:37.996Z,16.73
2023-04-15T12:52:04.859Z,15.85
2023-04-15T12:54:32.076Z,15.15
2023-04-15T12:56:59.848Z,22.80
2023-04-15T12:59:26.667Z,17.10
2023-04-15T13:01:54.343Z,17.92
2023-04-15T13:04:22.072Z,16.17
2023-04-15T13:06:49.491Z,14.98
2023-04-15T13:09:16.232Z,15.48
2023-04-15T13:11:43.083Z,15.13
2023-04-15T13:14:11.827Z,16.65
2023-04-15T13:16:38.839Z,15.55
2023-04-15T13:19:06.459Z,13.50
2023-04-15T13:21:35.578Z,12.07
2023-04-15T13:24:07.260Z,14.20
2023-04-15T13:26:34.172Z,17.75
2023-04-15T13:29:01.174Z,19.58
2023-04-15T13:31:28.452Z,13.55
2023-04-15T13:33:57.194Z,12.98
2023-04-15T13:36:24.043Z,15.23
2023-04-15T13:38:51.588Z,15.25
2023-04-15T13:41:18.864Z,13.55
2023-04-15T13:43:45.574Z,24.35
2023-04-15T13:46:12.319Z,12.75
2023-04-15T13:48:39.595Z,13.98
2023-04-15T13:51:06.325Z,15.98
2023-04-15T13:53:38.200Z,14.80
2023-04-15T13:56:07.302Z,12.65
2023-04-15T13:58:34.216Z,13.85
2023-04-15T14:01:02.086Z,12.50
2023-04-15T14:03:30.965Z,12.52
2023-04-15T14:05:58.409Z,14.35
2023-04-15T14:08:29.752Z,14.05
2023-04-15T14:10:57.537Z,12.73
2023-04-15T14:13:24.207Z,13.38
2023-04-15T14:15:50.905Z,11.48
2023-04-15T14:18:17.628Z,11.65
2023-04-15T14:20:44.293Z,10.68
2023-04-15T14:23:10.976Z,13.50
2023-04-15T14:25:39.122Z,12.52
2023-04-15T14:28:06.253Z,18.08
2023-04-15T14:30:33.196Z,16.20
2023-04-15T14:33:01.251Z,14.88
2023-04-15T14:35:28.522Z,15.27
2023-04-15T14:37:55.675Z,16.48
2023-04-15T14:40:23.749Z,14.95
2023-04-15T14:42:50.758Z,13.98
2023-04-15T14:45:17.664Z,14.38
2023-04-15T14:47:45.318Z,16.23
2023-04-15T14:50:12.069Z,15.57
2023-04-15T14:52:38.953Z,15.13
2023-04-15T14:55:07.723Z,14.20
2023-04-15T14:57:34.396Z,16.77
2023-04-15T15:00:01.175Z,15.98
2023-04-15T15:02:38.225Z,14.05
2023-04-15T15:05:07.062Z,18.83
2023-04-15T15:07:34.240Z,13.15
2023-04-15T15:10:02.898Z,13.85
2023-04-15T15:14:57.096Z,13.25
2023-04-15T15:17:23.865Z,13.50
2023-04-15T15:19:50.989Z,12.93
2023-04-15T15:22:19.432Z,11.40
2023-04-15T15:24:47.575Z,12.35
2023-04-15T15:27:14.696Z,14.68
2023-04-15T15:29:41.503Z,15.25
2023-04-15T15:32:08.223Z,11.85
2023-04-15T15:34:34.895Z,15.52
2023-04-15T15:37:01.696Z,10.48
2023-04-15T15:39:28.472Z,13.98
2023-04-15T15:41:55.121Z,12.07
2023-04-15T15:44:21.868Z,12.65
2023-04-15T15:46:50.322Z,12.82
2023-04-15T15:49:17.074Z,10.32
2023-04-15T15:51:43.746Z,9.35
2023-04-15T15:54:10.516Z,13.63
2023-04-15T15:56:39.426Z,14.95
2023-04-15T15:59:06.419Z,13.00
2023-04-15T16:01:33.557Z,9.07
2023-04-15T16:04:00.817Z,13.02
2023-04-15T16:06:28.078Z,10.63
2023-04-15T16:08:54.810Z,12.77
2023-04-15T16:11:21.497Z,11.13
2023-04-15T16:13:48.291Z,11.82
2023-04-15T16:16:16.312Z,10.40
2023-04-15T16:18:43.015Z,11.38
2023-04-15T16:21:09.742Z,10.40
2023-04-15T16:23:36.719Z,11.35
2023-04-15T16:26:03.509Z,11.20
2023-04-15T16:28:30.257Z,11.30
2023-04-15T16:30:57.064Z,13.77
2023-04-15T16:33:24.033Z,14.40
2023-04-15T16:35:51.156Z,10.52
2023-04-15T16:38:17.932Z,11.63
2023-04-15T16:40:44.584Z,10.52
2023-04-15T16:43:11.459Z,12.27
2023-04-15T16:45:38.458Z,11.07
2023-04-15T16:48:05.650Z,13.15
2023-04-15T16:50:33.072Z,12.23
2023-04-15T16:52:59.883Z,13.68
2023-04-15T16:55:28.049Z,10.45
2023-04-15T16:58:01.427Z,11.57
2023-04-15T17:00:31.350Z,12.93
2023-04-15T17:03:00.222Z,12.07
2023-04-15T17:05:33.549Z,10.88
2023-04-15T17:08:01.486Z,13.27
2023-04-15T17:10:28.650Z,14.25
2023-04-15T17:12:56.847Z,12.45
2023-04-15T17:15:24.171Z,14.00
2023-04-15T17:17:51.330Z,12.50
2023-04-15T17:20:19.423Z,13.10
2023-04-15T17:22:48.539Z,13.77
2023-04-15T17:25:15.956Z,14.30
2023-04-15T17:27:43.333Z,13.13
2023-04-15T17:30:10.152Z,11.95
2023-04-15T17:32:40.422Z,12.00
2023-04-15T17:35:07.664Z,14.93
2023-04-15T17:37:34.808Z,12.60
2023-04-15T17:40:01.701Z,12.13
2023-04-15T17:42:28.693Z,19.63
2023-04-15T17:44:55.374Z,17.50
2023-04-15T17:47:22.147Z,19.50
2023-04-15T17:49:48.851Z,22.77
2023-04-15T17:52:15.949Z,19.65
2023-04-15T17:54:42.606Z,21.08
2023-04-15T17:57:10.234Z,19.25
2023-04-15T17:59:38.735Z,18.00
2023-04-15T18:02:05.864Z,16.25
2023-04-15T18:04:32.774Z,21.67
2023-04-15T18:06:59.660Z,21.27
2023-04-15T18:09:27.143Z,17.50
2023-04-15T18:11:53.972Z,20.05
2023-04-15T18:14:33.441Z,16.85
2023-04-15T18:17:02.315Z,16.90
2023-04-15T18:19:30.563Z,18.65
2023-04-15T18:21:57.925Z,14.85
2023-04-15T18:24:24.581Z,17.40
2023-04-15T18:26:52.411Z,17.08
2023-04-15T18:29:19.130Z,18.75
2023-04-15T18:31:46.267Z,17.90
2023-04-15T18:34:13.148Z,22.75
2023-04-15T18:36:39.665Z,22.73
2023-04-15T18:39:07.061Z,32.95
2023-04-15T18:41:33.721Z,21.00
2023-04-15T18:44:00.345Z,20.23
2023-04-15T18:46:27.770Z,19.08
2023-04-15T18:48:57.709Z,21.05
2023-04-15T18:51:24.519Z,20.88
2023-04-15T18:53:51.651Z,21.38
2023-04-15T18:56:18.095Z,24.10
2023-04-15T18:59:08.320Z,24.45
2023-04-15T19:01:32.023Z,23.75
2023-04-15T19:03:59.891Z,18.73
2023-04-15T19:06:27.153Z,24.13
2023-04-15T19:08:54.836Z,20.27
2023-04-15T19:11:21.682Z,22.98
2023-04-15T19:13:48.228Z,23.42
2023-04-15T19:16:14.817Z,19.65
2023-04-15T19:18:41.849Z,20.13
2023-04-15T19:21:08.502Z,20.08
2023-04-15T19:23:38.471Z,22.60
2023-04-15T19:26:05.715Z,21.80
2023-04-15T19:28:32.285Z,22.25
2023-04-15T19:30:58.815Z,25.73
2023-04-15T19:33:30.913Z,22.25
2023-04-15T19:36:02.295Z,23.67
2023-04-15T19:38:30.785Z,26.33
2023-04-15T19:40:58.519Z,21.73
2023-04-15T19:43:25.035Z,20.20
2023-04-15T19:45:53.041Z,26.27
2023-04-15T19:48:20.579Z,22.20
2023-04-15T19:50:47.261Z,26.15
2023-04-15T19:53:14.438Z,22.05
2023-04-15T19:55:41.499Z,22.58
2023-04-15T19:58:07.974Z,22.58
2023-04-15T20:00:34.782Z,25.63
2023-04-15T20:03:01.552Z,26.00
2023-04-15T20:05:28.197Z,22.08
2023-04-15T20:07:55.382Z,19.52
2023-04-15T20:10:23.238Z,22.58
2023-04-15T20:12:52.736Z,24.17
2023-04-15T20:15:22.820Z,19.70
2023-04-15T20:17:50.260Z,23.20
2023-04-15T20:20:16.918Z,19.48
2023-04-15T20:22:43.639Z,23.17
2023-04-15T20:25:10.399Z,21.50
2023-04-15T20:27:37.331Z,26.83
2023-04-15T20:30:05.002Z,23.50
2023-04-15T20:32:35.323Z,25.58
2023-04-15T20:35:04.285Z,23.05
2023-04-15T20:37:33.135Z,27.85
2023-04-15T20:40:00.644Z,24.65
2023-04-15T20:42:27.267Z,28.95
2023-04-15T20:44:53.948Z,28.15
2023-04-15T20:47:20.793Z,23.20
2023-04-15T20:49:47.625Z,24.05
2023-04-15T20:52:14.316Z,23.73
2023-04-15T20:54:41.063Z,26.10
2023-04-15T20:57:07.760Z,25.38
2023-04-15T20:59:34.861Z,28.13
2023-04-15T21:02:02.254Z,29.90
2023-04-15T21:04:40.705Z,23.65
2023-04-15T21:07:09.154Z,25.85
2023-04-15T21:09:41.377Z,31.42
2023-04-15T21:12:08.376Z,28.20
2023-04-15T21:14:36.009Z,21.60
2023-04-15T21:17:09.264Z,27.75
2023-04-15T21:19:37.051Z,23.38
2023-04-15T21:22:04.122Z,24.48
2023-04-15T21:24:30.841Z,20.38
2023-04-15T21:26:58.207Z,25.98
2023-04-15T21:29:25.743Z,20.67
2023-04-15T21:31:52.520Z,26.70
2023-04-15T21:34:19.265Z,25.17
2023-04-15T21:36:46.231Z,22.73
2023-04-15T21:39:13.639Z,22.85
2023-04-15T21:41:40.452Z,26.42
2023-04-15T21:44:07.214Z,29.75
2023-04-15T21:46:35.255Z,24.98
2023-04-15T21:49:03.486Z,27.27
2023-04-15T21:51:31.340Z,25.25
2023-04-15T21:53:58.807Z,23.48
2023-04-15T21:56:25.986Z,25.77
2023-04-15T21:58:56.859Z,24.90
2023-04-15T22:01:24.561Z,27.95
2023-04-15T22:03:51.774Z,23.60
2023-04-15T22:06:18.579Z,29.02
2023-04-15T22:08:56.251Z,23.85
2023-04-15T22:11:27.238Z,25.83
2023-04-15T22:13:54.601Z,26.15
2023-04-15T22:16:21.536Z,20.50
2023-04-15T22:18:48.990Z,20.77
2023-04-15T22:21:15.661Z,25.52
2023-04-15T22:23:45.844Z,23.77
2023-04-15T22:26:12.587Z,25.40
2023-04-15T22:28:39.063Z,25.40
2023-04-15T22:31:05.646Z,22.85
2023-04-15T22:33:32.244Z,24.25
2023-04-15T22:35:58.697Z,26.98
2023-04-15T22:38:25.318Z,24.25
2023-04-15T22:40:53.887Z,23.52
2023-04-15T22:43:20.419Z,21.38
2023-04-15T22:45:51.137Z,27.48
2023-04-15T22:48:18.333Z,32.70
2023-04-15T22:50:44.968Z,26.25
2023-04-15T22:53:11.472Z,21.33
2023-04-15T22:55:37.986Z,30.77
2023-04-15T22:58:04.638Z,28.13
2023-04-15T23:00:31.105Z,24.67
2023-04-15T23:02:57.791Z,28.75
2023-04-15T23:05:24.562Z,21.20
2023-04-15T23:07:51.189Z,20.58
2023-04-15T23:10:17.667Z,25.33
2023-04-15T23:12:44.137Z,21.35
2023-04-15T23:15:11.571Z,27.83
2023-04-15T23:17:42.301Z,21.95
2023-04-15T23:20:09.188Z,22.35
2023-04-15T23:22:38.633Z,24.30
2023-04-15T23:25:05.772Z,20.80
2023-04-15T23:27:32.322Z,26.38
2023-04-15T23:29:58.773Z,27.83
2023-04-15T23:32:25.370Z,23.90
2023-04-15T23:34:52.171Z,22.95
2023-04-15T23:37:18.858Z,23.92
2023-04-15T23:39:45.393Z,28.88
2023-04-15T23:42:11.898Z,28.50
2023-04-15T23:44:38.404Z,25.08
2023-04-15T23:47:05.007Z,26.23
2023-04-15T23:49:31.490Z,26.42
2023-04-15T23:51:58.019Z,26.17
2023-04-15T23:54:24.615Z,24.55
2023-04-15T23:56:51.076Z,30.48
2023-04-15T23:59:17.543Z,25.80
